createdAt,value
2018-04-26T00:00:28.672Z,5.07
2018-04-26T00:03:00.847Z,6.33
2018-04-26T00:05:32.933Z,6.47
2018-04-26T00:08:05.103Z,7.57
2018-04-26T00:10:37.251Z,7.00
2018-04-26T00:13:09.471Z,4.17
2018-04-26T00:15:41.885Z,5.80
2018-04-26T00:18:14.064Z,5.93
2018-04-26T00:20:46.220Z,8.37
2018-04-26T00:23:18.396Z,7.37
2018-04-26T00:25:50.841Z,4.83
2018-04-26T00:28:23.879Z,5.67
2018-04-26T00:30:56.023Z,6.60
2018-04-26T00:33:28.175Z,7.50
2018-04-26T00:36:00.432Z,7.50
2018-04-26T00:38:32.679Z,5.87
2018-04-26T00:41:04.768Z,8.00
2018-04-26T00:43:37.127Z,4.03
2018-04-26T00:46:09.451Z,4.93
2018-04-26T00:48:41.595Z,5.37
2018-04-26T00:51:13.820Z,8.27
2018-04-26T00:53:46.795Z,5.40
2018-04-26T00:56:18.934Z,9.00
2018-04-26T00:58:51.243Z,7.27
2018-04-26T01:01:24.296Z,9.07
2018-04-26T01:03:56.544Z,6.43
2018-04-26T01:06:28.911Z,7.80
2018-04-26T01:09:01.187Z,6.03
2018-04-26T01:11:33.236Z,2.10
2018-04-26T01:14:05.551Z,4.07
2018-04-26T01:16:37.703Z,7.33
2018-04-26T01:19:10.024Z,3.43
2018-04-26T01:21:42.873Z,9.00
2018-04-26T01:24:14.975Z,8.57
2018-04-26T01:26:47.756Z,4.30
2018-04-26T01:29:20.699Z,4.77
2018-04-26T01:31:52.888Z,4.20
2018-04-26T01:34:25.207Z,5.27
2018-04-26T01:37:09.788Z,7.97
2018-04-26T01:39:42.068Z,6.97
2018-04-26T01:42:15.008Z,6.77
2018-04-26T01:44:47.220Z,8.73
2018-04-26T01:47:19.327Z,4.03
2018-04-26T01:49:51.391Z,10.07
2018-04-26T01:52:23.740Z,5.33
2018-04-26T01:54:56.072Z,3.63
2018-04-26T01:57:28.312Z,6.10
2018-04-26T02:00:00.463Z,6.83
2018-04-26T02:02:33.543Z,9.00
2018-04-26T02:05:06.627Z,9.20
2018-04-26T02:07:38.768Z,5.80
2018-04-26T02:10:10.950Z,10.40
2018-04-26T02:12:43.268Z,6.73
2018-04-26T02:15:15.404Z,7.87
2018-04-26T02:17:47.563Z,6.53
2018-04-26T02:20:20.626Z,6.07
2018-04-26T02:22:53.956Z,10.27
2018-04-26T02:25:26.152Z,9.97
2018-04-26T02:27:58.259Z,9.23
2018-04-26T02:30:32.035Z,9.67
2018-04-26T02:33:04.304Z,7.83
2018-04-26T02:35:36.701Z,9.67
2018-04-26T02:38:09.584Z,10.00
2018-04-26T02:40:41.720Z,8.27
2018-04-26T02:43:14.019Z,11.77
2018-04-26T02:45:46.181Z,8.20
2018-04-26T02:48:18.477Z,9.90
2018-04-26T02:50:50.900Z,7.13
2018-04-26T02:53:23.696Z,9.33
2018-04-26T02:55:55.892Z,11.13
2018-04-26T02:58:28.040Z,4.90
2018-04-26T03:01:00.919Z,8.40
2018-04-26T03:03:33.131Z,11.87
2018-04-26T03:06:05.271Z,8.83
2018-04-26T03:08:37.403Z,12.53
2018-04-26T03:11:09.527Z,11.40
2018-04-26T03:13:41.616Z,14.03
2018-04-26T03:16:13.674Z,8.90
2018-04-26T03:18:46.605Z,11.03
2018-04-26T03:21:18.887Z,9.33
2018-04-26T03:23:51.144Z,14.50
2018-04-26T03:26:23.952Z,12.17
2018-04-26T03:28:56.121Z,10.13
2018-04-26T03:31:28.209Z,9.03
2018-04-26T03:34:00.261Z,8.93
2018-04-26T03:36:32.511Z,12.57
2018-04-26T03:39:04.778Z,8.10
2018-04-26T03:41:36.887Z,9.30
2018-04-26T03:44:09.845Z,9.80
2018-04-26T03:46:42.050Z,10.30
2018-04-26T03:49:15.263Z,12.33
2018-04-26T03:51:48.179Z,12.70
2018-04-26T03:54:20.347Z,11.80
2018-04-26T03:56:52.728Z,10.27
2018-04-26T03:59:26.161Z,13.17
2018-04-26T04:02:11.631Z,13.13
2018-04-26T04:04:56.263Z,14.73
2018-04-26T04:07:28.531Z,15.00
2018-04-26T04:10:00.908Z,10.47
2018-04-26T04:12:33.151Z,8.97
2018-04-26T04:15:05.269Z,12.30
2018-04-26T04:17:37.564Z,13.27
2018-04-26T04:20:09.707Z,14.67
2018-04-26T04:22:41.843Z,7.90
2018-04-26T04:25:14.955Z,11.63
2018-04-26T04:27:47.341Z,12.27
2018-04-26T04:30:19.559Z,11.83
2018-04-26T04:32:51.840Z,12.30
2018-04-26T04:35:24.062Z,8.50
2018-04-26T04:37:56.111Z,13.67
2018-04-26T04:40:28.933Z,12.20
2018-04-26T04:43:01.831Z,10.53
2018-04-26T04:45:33.964Z,16.00
2018-04-26T04:48:06.638Z,12.20
2018-04-26T04:50:38.915Z,14.83
2018-04-26T04:53:13.309Z,13.10
2018-04-26T04:55:45.520Z,10.20
2018-04-26T04:58:18.815Z,12.07
2018-04-26T05:00:51.009Z,13.10
2018-04-26T05:03:23.341Z,15.10
2018-04-26T05:05:57.051Z,9.53
2018-04-26T05:08:29.259Z,14.47
2018-04-26T05:11:01.592Z,8.93
2018-04-26T05:13:34.358Z,9.53
2018-04-26T05:16:06.528Z,12.90
2018-04-26T05:18:38.844Z,11.13
2018-04-26T05:21:11.019Z,9.23
2018-04-26T05:23:43.252Z,12.27
2018-04-26T05:26:15.414Z,6.27
2018-04-26T05:28:47.529Z,3.33
2018-04-26T05:31:19.655Z,3.13
2018-04-26T05:33:51.921Z,3.73
2018-04-26T05:36:24.727Z,2.70
2018-04-26T05:38:56.880Z,4.67
2018-04-26T05:41:29.007Z,2.30
2018-04-26T05:44:01.751Z,4.27
2018-04-26T05:46:38.009Z,5.17
2018-04-26T05:49:10.316Z,2.60
2018-04-26T05:51:43.239Z,5.10
2018-04-26T05:54:15.431Z,6.83
2018-04-26T05:56:49.104Z,4.63
2018-04-26T05:59:21.172Z,4.43
2018-04-26T06:01:53.256Z,3.00
2018-04-26T06:04:26.133Z,6.23
2018-04-26T06:06:58.472Z,3.43
2018-04-26T06:09:30.784Z,3.20
2018-04-26T06:14:40.720Z,4.40
2018-04-26T06:17:13.772Z,5.43
2018-04-26T06:19:45.872Z,5.80
2018-04-26T06:22:18.041Z,4.47
2018-04-26T06:24:50.631Z,7.07
2018-04-26T06:27:22.816Z,4.43
2018-04-26T06:29:55.124Z,9.63
2018-04-26T06:32:28.023Z,4.07
2018-04-26T06:35:01.692Z,4.00
2018-04-26T06:37:33.995Z,3.50
2018-04-26T06:40:06.677Z,5.37
2018-04-26T06:42:38.992Z,4.43
2018-04-26T06:45:11.360Z,5.77
2018-04-26T06:47:44.175Z,4.63
2018-04-26T06:50:17.133Z,6.57
2018-04-26T06:52:49.343Z,5.33
2018-04-26T06:55:21.644Z,8.70
2018-04-26T06:57:53.736Z,7.07
2018-04-26T07:00:26.792Z,10.73
2018-04-26T07:02:59.023Z,9.87
2018-04-26T07:05:31.160Z,12.57
2018-04-26T07:08:03.507Z,9.60
2018-04-26T07:10:35.767Z,9.13
2018-04-26T07:13:07.935Z,6.80
2018-04-26T07:15:40.083Z,6.67
2018-04-26T07:18:12.204Z,7.33
2018-04-26T07:20:45.258Z,8.17
2018-04-26T07:23:17.597Z,6.13
2018-04-26T07:25:49.847Z,10.93
2018-04-26T07:28:21.957Z,9.23
2018-04-26T07:30:54.328Z,9.20
2018-04-26T07:33:26.675Z,8.63
2018-04-26T07:35:59.700Z,9.97
2018-04-26T07:38:31.955Z,8.90
2018-04-26T07:41:04.968Z,14.37
2018-04-26T07:43:38.572Z,9.30
2018-04-26T07:46:10.775Z,11.83
2018-04-26T07:48:42.912Z,9.73
2018-04-26T07:51:15.010Z,11.53
2018-04-26T07:53:47.355Z,11.53
2018-04-26T07:56:19.648Z,10.23
2018-04-26T07:58:52.015Z,13.13
2018-04-26T08:01:25.169Z,11.50
2018-04-26T08:03:57.380Z,8.87
2018-04-26T08:06:29.653Z,10.23
2018-04-26T08:09:01.946Z,8.23
2018-04-26T08:11:35.443Z,10.43
2018-04-26T08:14:07.603Z,10.27
2018-04-26T08:16:39.759Z,8.90
2018-04-26T08:19:12.053Z,10.53
2018-04-26T08:21:44.148Z,11.70
2018-04-26T08:24:16.444Z,12.07
2018-04-26T08:26:48.737Z,8.50
2018-04-26T08:29:21.080Z,10.50
2018-04-26T08:31:54.046Z,11.97
2018-04-26T08:34:26.386Z,8.60
2018-04-26T08:36:59.231Z,12.83
2018-04-26T08:39:31.476Z,11.80
2018-04-26T08:42:03.872Z,14.50
2018-04-26T08:44:36.198Z,8.47
2018-04-26T08:47:08.400Z,9.67
2018-04-26T08:49:40.651Z,9.90
2018-04-26T08:52:13.100Z,7.70
2018-04-26T08:54:46.165Z,9.20
2018-04-26T08:57:18.375Z,14.57
2018-04-26T08:59:51.344Z,8.30
2018-04-26T09:02:23.628Z,8.47
2018-04-26T09:04:56.044Z,8.07
2018-04-26T09:07:29.128Z,9.27
2018-04-26T09:10:01.319Z,8.03
2018-04-26T09:12:36.584Z,12.80
2018-04-26T09:15:09.771Z,8.67
2018-04-26T09:17:42.328Z,9.23
2018-04-26T09:20:14.515Z,5.07
2018-04-26T09:22:46.840Z,7.00
2018-04-26T09:25:19.006Z,7.73
2018-04-26T09:27:51.324Z,8.87
2018-04-26T09:30:23.624Z,5.13
2018-04-26T09:32:55.891Z,6.10
2018-04-26T09:35:28.293Z,7.07
2018-04-26T09:38:00.616Z,6.73
2018-04-26T09:40:34.207Z,5.83
2018-04-26T09:43:07.232Z,7.37
2018-04-26T09:45:39.521Z,8.30
2018-04-26T09:48:11.676Z,7.80
2018-04-26T09:50:43.997Z,6.60
2018-04-26T09:53:16.287Z,7.03
2018-04-26T09:55:48.598Z,6.23
2018-04-26T09:58:23.220Z,8.03
2018-04-26T10:00:55.620Z,6.03
2018-04-26T10:03:28.171Z,6.87
2018-04-26T10:06:03.383Z,4.73
2018-04-26T10:08:35.468Z,4.17
2018-04-26T10:11:07.877Z,6.37
2018-04-26T10:13:40.901Z,6.73
2018-04-26T10:16:13.052Z,8.83
2018-04-26T10:18:46.660Z,6.13
2018-04-26T10:21:19.015Z,6.43
2018-04-26T10:23:51.163Z,7.00
2018-04-26T10:26:24.256Z,4.50
2018-04-26T10:28:57.683Z,5.17
2018-04-26T10:31:30.040Z,7.53
2018-04-26T10:34:02.283Z,5.53
2018-04-26T10:36:34.407Z,5.73
2018-04-26T10:39:06.715Z,7.63
2018-04-26T10:41:38.792Z,7.07
2018-04-26T10:44:11.273Z,7.97
2018-04-26T10:46:44.199Z,8.73
2018-04-26T10:49:16.620Z,3.73
2018-04-26T10:51:48.904Z,6.47
2018-04-26T10:54:21.197Z,5.87
2018-04-26T10:56:53.345Z,6.83
2018-04-26T10:59:25.447Z,6.57
2018-04-26T11:01:57.580Z,7.13
2018-04-26T11:04:29.775Z,4.40
2018-04-26T11:07:03.095Z,5.67
2018-04-26T11:09:36.132Z,6.10
2018-04-26T11:12:08.344Z,5.43
2018-04-26T11:14:40.604Z,5.40
2018-04-26T11:17:12.899Z,5.50
2018-04-26T11:19:45.340Z,6.90
2018-04-26T11:22:18.056Z,3.37
2018-04-26T11:24:50.450Z,4.07
2018-04-26T11:27:22.829Z,5.23
2018-04-26T11:29:55.088Z,6.67
2018-04-26T11:32:28.726Z,4.67
2018-04-26T11:35:01.065Z,5.23
2018-04-26T11:37:34.322Z,5.00
2018-04-26T11:40:10.093Z,8.37
2018-04-26T11:42:42.333Z,6.23
2018-04-26T11:45:15.100Z,8.83
2018-04-26T11:47:48.597Z,7.50
2018-04-26T11:50:20.886Z,7.03
2018-04-26T11:52:54.131Z,7.73
2018-04-26T11:55:26.324Z,4.13
2018-04-26T11:57:58.615Z,5.73
2018-04-26T12:00:30.884Z,4.90
2018-04-26T12:03:04.047Z,6.67
2018-04-26T12:05:36.296Z,7.73
2018-04-26T12:08:08.439Z,5.43
2018-04-26T12:10:41.567Z,3.67
2018-04-26T12:13:13.855Z,5.23
2018-04-26T12:15:46.987Z,6.00
2018-04-26T12:18:19.631Z,5.47
2018-04-26T12:20:54.227Z,5.23
2018-04-26T12:23:26.787Z,4.43
2018-04-26T12:25:59.301Z,5.13
2018-04-26T12:28:31.577Z,6.63
2018-04-26T12:31:04.769Z,5.37
2018-04-26T12:33:37.030Z,5.17
2018-04-26T12:36:13.157Z,7.77
2018-04-26T12:38:47.686Z,4.77
2018-04-26T12:41:20.144Z,6.80
2018-04-26T12:43:52.646Z,6.37
2018-04-26T12:46:25.084Z,4.53
2018-04-26T12:48:57.785Z,9.57
2018-04-26T12:51:31.070Z,9.23
2018-04-26T12:54:03.352Z,3.80
2018-04-26T12:56:35.865Z,5.87
2018-04-26T12:59:08.134Z,6.47
2018-04-26T13:01:40.600Z,4.57
2018-04-26T13:04:14.405Z,6.43
2018-04-26T13:06:46.669Z,3.83
2018-04-26T13:09:19.983Z,4.37
2018-04-26T13:11:52.257Z,3.77
2018-04-26T13:14:24.509Z,3.50
2018-04-26T13:16:58.016Z,2.93
2018-04-26T13:19:30.260Z,4.70
2018-04-26T13:22:02.344Z,4.07
2018-04-26T13:24:34.656Z,3.07
2018-04-26T13:27:07.193Z,2.50
2018-04-26T13:29:39.405Z,4.83
2018-04-26T13:32:12.571Z,3.27
2018-04-26T13:34:47.303Z,4.03
2018-04-26T13:37:19.672Z,4.83
2018-04-26T13:39:52.505Z,8.87
2018-04-26T13:42:25.909Z,6.60
2018-04-26T13:44:58.563Z,6.23
2018-04-26T13:47:30.773Z,5.97
2018-04-26T13:50:03.256Z,6.10
2018-04-26T13:52:35.535Z,5.30
2018-04-26T13:55:09.096Z,6.30
2018-04-26T13:57:41.733Z,4.33
2018-04-26T14:00:15.276Z,6.17
2018-04-26T14:02:49.424Z,7.53
2018-04-26T14:05:22.045Z,3.40
2018-04-26T14:07:54.960Z,4.50
2018-04-26T14:10:27.439Z,4.63
2018-04-26T14:13:00.152Z,6.87
2018-04-26T14:15:32.481Z,4.10
2018-04-26T14:18:04.855Z,9.50
2018-04-26T14:20:38.213Z,5.70
2018-04-26T14:23:11.316Z,4.37
2018-04-26T14:25:43.449Z,3.90
2018-04-26T14:28:16.492Z,3.60
2018-04-26T14:30:49.245Z,5.63
2018-04-26T14:33:21.415Z,4.67
2018-04-26T14:35:53.682Z,3.80
2018-04-26T14:38:26.016Z,3.30
2018-04-26T14:40:58.310Z,3.83
2018-04-26T14:43:30.515Z,4.10
2018-04-26T14:46:02.796Z,5.90
2018-04-26T14:48:35.766Z,4.60
2018-04-26T14:51:07.955Z,2.53
2018-04-26T14:53:40.080Z,8.27
2018-04-26T14:56:13.969Z,4.47
2018-04-26T14:58:46.292Z,2.27
2018-04-26T15:01:18.669Z,11.40
2018-04-26T15:03:50.859Z,2.67
2018-04-26T15:06:23.199Z,4.23
2018-04-26T15:08:55.461Z,5.47
2018-04-26T15:11:27.773Z,2.10
2018-04-26T15:13:59.845Z,5.03
2018-04-26T15:16:32.207Z,4.73
2018-04-26T15:19:04.637Z,8.60
2018-04-26T15:21:37.047Z,6.33
2018-04-26T15:24:10.439Z,3.80
2018-04-26T15:26:43.896Z,3.50
2018-04-26T15:29:16.232Z,5.23
2018-04-26T15:31:48.350Z,2.50
2018-04-26T15:34:20.557Z,2.97
2018-04-26T15:36:53.482Z,3.00
2018-04-26T15:39:25.673Z,2.83
2018-04-26T15:41:57.827Z,3.90
2018-04-26T15:44:29.937Z,2.93
2018-04-26T15:47:02.204Z,6.90
2018-04-26T15:49:34.343Z,4.43
2018-04-26T15:52:06.495Z,2.77
2018-04-26T15:54:51.839Z,5.10
2018-04-26T15:57:31.272Z,3.20
2018-04-26T16:00:21.932Z,3.63
2018-04-26T16:03:06.589Z,2.23
2018-04-26T16:09:05.054Z,3.90
2018-04-26T16:11:49.742Z,3.20
2018-04-26T16:14:35.215Z,2.67
2018-04-26T16:17:28.734Z,3.03
2018-04-26T16:23:42.183Z,4.67
2018-04-26T16:26:26.828Z,5.80
2018-04-26T16:29:17.656Z,5.80
2018-04-26T16:35:20.372Z,5.07
2018-04-26T16:38:10.912Z,4.90
2018-04-26T16:40:43.976Z,5.23
2018-04-26T16:43:16.127Z,5.47
2018-04-26T16:45:48.448Z,2.93
2018-04-26T16:48:21.872Z,4.97
2018-04-26T16:50:54.112Z,5.43
2018-04-26T16:53:26.456Z,6.47
2018-04-26T16:55:58.726Z,4.17
2018-04-26T16:58:31.428Z,2.80
2018-04-26T17:01:03.668Z,5.47
2018-04-26T17:03:35.900Z,4.23
2018-04-26T17:06:08.020Z,3.50
2018-04-26T17:08:40.387Z,6.33
2018-04-26T17:11:12.675Z,5.03
2018-04-26T17:13:45.784Z,3.20
2018-04-26T17:16:17.915Z,3.47
2018-04-26T17:18:50.019Z,3.07
2018-04-26T17:21:22.855Z,4.27
2018-04-26T17:23:56.754Z,6.03
2018-04-26T17:26:28.979Z,3.23
2018-04-26T17:29:01.101Z,5.77
2018-04-26T17:31:33.376Z,4.67
2018-04-26T17:34:05.484Z,3.10
2018-04-26T17:36:37.628Z,2.53
2018-04-26T17:39:09.723Z,6.10
